Airfield :
LOGIN :

Register | Disclaimer

   EN    FR    IT 

 










Legend :    VFR   Marginal VFR   IFR   Intensive IFR   Very Intensive IFR
Visi :
Ceiling :
>= 8 km
>= 3000ft
5 to 8 km
1000 to 3000 ft
1500m to 5 km
500 to 1000 ft
800 to 1500m
200 to 500 ft
< 800m
< 200 ft
Symbols :   Thunderstorms  Fog  Heavy snow  Heavy precipitations  Wind > 20 kt
SIGMETs :     Misc.  Thunderstorms  Icing  Turbulence  Mountain Waves  Volcanic Ashes






- Airport Elevation : 650 ft
- IATA code : ZJI


LSZL - Locarno

CURRENT METAR :
  • 111450Z AUTO 26005KT 230V290 9999NDV FEW040 31/19 Q1014 RMK

EXPIRED METARs :
  • 111420Z 26006KT 9999 FEW080 30/20 Q1014 RMK BLU+
  • 111350Z 26005KT 230V300 9999 FEW080 30/20 Q1015 RMK BLU+
  • 111320Z 25006KT 9999 FEW080 30/19 Q1015 RMK BLU+
  • 111250Z 26005KT 9999 FEW080 29/17 Q1015 RMK BLU+

TAF TAF LSZL
Valid from the 11 at 12:00 until the 11 at 21:00 UTC


111125Z 1112/1121 25005KT 9999 FEW070
PROB40
TEMPO 1114/1121 SHRA SCT070TCU
PROB30
TEMPO 1115/1121 27012G25KT 4000 TSRA SCT070CB



MET'MAP, your aeronautical weather chart ! - Copyright ORBIFLY December 2007 - Disclaimer

ORBIFLY MET'MAP TEAM :

Programming & Development : Alexandra Zaïnal
Concept & original design : Baudouin d'Aumeries
Assistance for programming : Marc-Olivier Méhu
Technical & hardware support : Manuel Goepfert

Contact : metmap@orbifly.com




SOURCES & CREDITS :

   NOAA